Flight Track Log - Related Links

Times and Time Zones

All times are in EDT time to prevent confusion due to time zone crossing. See the N333EB flight status page for this flight to view local times or setup timezone preferences in your user account.


Time Position Orientation Groundspeed Altitude Reporting Facility
EDT Latitude Longitude Course Direction KTS MPH feet Rate Location/Type
Tue 02:13:58 PM 39.5333 -104.8333 144° Southeast 180 207 6,900  Level Denver TRACON
Tue 02:14:37 PM 39.5050 -104.8125 150° Southeast 191 220 8,400 1,842 Climbing Denver Center
Tue 02:15:39 PM 39.4575 -104.7669 143° Southeast 213 245 10,000 1,742 Climbing Denver Center
Tue 02:16:41 PM 39.3981 -104.7133 145° Southeast 243 280 12,000 1,887 Climbing Denver Center
Tue 02:17:43 PM 39.3425 -104.6622 145° Southeast 247 284 13,900 2,032 Climbing Denver Center
Tue 02:18:45 PM 39.2861 -104.6067 143° Southeast 253 291 16,200 1,902 Climbing Denver Center
Tue 02:19:00 PM 39.1950 -104.4962 144° Southeast  Level Estimated
Tue 02:19:46 PM 39.2233 -104.5475 144° Southeast 259 298 17,800  Level Denver Center
Tue 02:20:48 PM 39.1614 -104.4892 144° Southeast 273 314 19,400 1,500 Climbing Denver Center
Tue 02:21:50 PM 39.0972 -104.4444 152° Southeast 264 304 20,900 1,548 Climbing Denver Center
Tue 02:22:52 PM 39.0158 -104.4269 171° South 264 304 22,600 1,452 Climbing Denver Center
Tue 02:23:54 PM 38.9450 -104.4067 167° South 270 311 23,900 1,306 Climbing Denver Center
Tue 02:24:56 PM 38.8597 -104.3831 168° South 277 319 25,300 1,317 Climbing Denver Center
Tue 02:25:57 PM 38.7922 -104.3622 166° South 282 325 26,600 1,268 Climbing Denver Center
Tue 02:26:59 PM 38.7164 -104.3328 163° South 285 328 27,900 1,210 Climbing Denver Center
Tue 02:28:01 PM 38.6458 -104.2689 145° Southeast 305 351 29,100 1,355 Climbing Denver Center
Tue 02:29:03 PM 38.5592 -104.1981 147° Southeast 307 353 30,700 919 Climbing Denver Center
Tue 02:30:05 PM 38.4872 -104.1442 150° Southeast 302 348 31,000 221 Climbing Denver Center
Tue 02:31:19 PM 38.4083 -104.0819 148° Southeast 331 381 31,200 662 Climbing Denver Center
Tue 02:32:21 PM 38.3053 -104.0003 148° Southeast 340 391 32,500 1,065 Climbing Denver Center
Tue 02:33:23 PM 38.2303 -103.9406 148° Southeast 333 383 33,400 976 Climbing Denver Center
Tue 02:34:24 PM 38.1425 -103.8736 149° Southeast 330 380 34,500 780 Climbing Denver Center
Tue 02:35:26 PM 38.0694 -103.8150 148° Southeast 325 374 35,000 242 Climbing Denver Center
Tue 02:36:28 PM 37.9764 -103.7433 149° Southeast 346 398 35,000  Level Denver Center
Tue 02:37:42 PM 37.8942 -103.6786 148° Southeast 360 414 35,000  Level Denver Center
Tue 02:38:44 PM 37.7800 -103.5894 148° Southeast 375 432 35,000  Level Denver Center
Tue 02:39:46 PM 37.6919 -103.5219 149° Southeast 383 441 35,000  Level Denver Center
Tue 02:40:48 PM 37.6053 -103.4556 149° Southeast 379 436 35,000  Level Denver Center
Tue 02:41:49 PM 37.5025 -103.3772 149° Southeast 382 440 35,000  Level Denver Center
Tue 02:42:51 PM 37.4150 -103.3097 148° Southeast 384 442 35,000  Level Denver Center
Tue 02:43:53 PM 37.3111 -103.2317 149° Southeast 387 445 35,000  Level Denver Center
Tue 02:44:55 PM 37.2228 -103.1642 149° Southeast 388 447 35,000  Level Denver Center
Tue 02:45:57 PM 37.1194 -103.0850 149° Southeast 390 449 35,000  Level Denver Center
Tue 02:46:58 PM 37.0311 -103.0189 149° Southeast 388 447 35,000  Level Denver Center
Tue 02:48:08 PM 36.9281 -102.9417 149° Southeast 387 445 35,000  Level Albuquerque Center
Tue 02:49:09 PM 36.8244 -102.8636 149° Southeast 388 447 35,000  Level Albuquerque Center
Tue 02:50:11 PM 36.7369 -102.7983 149° Southeast 384 442 35,000  Level Albuquerque Center
Tue 02:51:12 PM 36.6497 -102.7339 149° Southeast 382 440 35,000  Level Albuquerque Center
Tue 02:52:14 PM 36.5558 -102.6625 149° Southeast 378 435 35,000  Level Albuquerque Center
Tue 02:53:16 PM 36.4642 -102.5947 149° Southeast 381 438 35,000  Level Albuquerque Center
Tue 02:54:17 PM 36.3728 -102.5272 149° Southeast 383 441 35,000  Level Albuquerque Center
Tue 02:55:19 PM 36.2639 -102.4467 149° Southeast 380 437 35,000  Level Albuquerque Center
Tue 02:56:21 PM 36.1714 -102.3794 150° Southeast 385 443 35,000  Level Albuquerque Center
Tue 02:57:22 PM 36.0814 -102.3117 149° Southeast 380 437 35,000  Level Albuquerque Center
Tue 02:58:24 PM 35.9900 -102.2456 150° Southeast 382 440 35,000  Level Albuquerque Center
Tue 02:59:26 PM 35.8983 -102.1786 149° Southeast 383 441 35,000  Level Albuquerque Center
Tue 03:00:27 PM 35.8081 -102.1125 149° Southeast 380 437 35,000  Level Albuquerque Center
Tue 03:01:29 PM 35.7175 -102.0467 149° Southeast 378 435 35,000  Level Albuquerque Center
Tue 03:02:31 PM 35.6081 -101.9669 149° Southeast 380 437 35,000  Level Albuquerque Center
Tue 03:03:32 PM 35.5175 -101.9011 149° Southeast 381 438 35,000  Level Albuquerque Center
Tue 03:04:34 PM 35.4289 -101.8350 149° Southeast 374 430 35,000  Level Albuquerque Center
Tue 03:05:36 PM 35.3361 -101.7686 150° Southeast 376 433 35,000  Level Albuquerque Center
Tue 03:06:37 PM 35.2422 -101.7014 150° Southeast 382 440 35,000  Level Albuquerque Center
Tue 03:07:39 PM 35.1581 -101.6139 140° Southeast 391 450 35,000  Level Albuquerque Center
Tue 03:08:40 PM 35.0786 -101.5297 139° Southeast 383 441 35,000  Level Albuquerque Center
Tue 03:09:42 PM 34.9967 -101.4433 139° Southeast 385 443 35,000  Level Albuquerque Center
Tue 03:10:44 PM 34.9117 -101.3542 139° Southeast 386 444 35,000  Level Albuquerque Center
Tue 03:11:45 PM 34.8319 -101.2692 139° Southeast 383 441 35,000  Level Albuquerque Center
Tue 03:12:47 PM 34.7528 -101.1847 139° Southeast 381 438 35,000  Level Albuquerque Center
Tue 03:13:49 PM 34.6558 -101.0822 139° Southeast 384 442 35,000  Level Albuquerque Center
Tue 03:14:50 PM 34.5767 -100.9994 139° Southeast 379 436 35,000  Level Albuquerque Center
Tue 03:15:52 PM 34.4967 -100.9156 139° Southeast 378 435 35,000  Level Albuquerque Center
Tue 03:16:54 PM 34.4183 -100.8339 139° Southeast 382 440 35,000  Level Albuquerque Center
Tue 03:17:25 PM 34.3700 -100.7825 139° Southeast 370 426 35,000  Level Fort Worth Center
Tue 03:18:25 PM 34.2886 -100.6989 140° Southeast 370 426 35,000  Level Fort Worth Center
Tue 03:19:25 PM 34.2094 -100.6128 138° Southeast 370 426 35,000 -150 Level Fort Worth Center
Tue 03:20:25 PM 34.1261 -100.5319 141° Southeast 370 426 34,700 -600 Descending Fort Worth Center
Tue 03:21:25 PM 34.0486 -100.4567 141° Southeast 380 437 33,800 -1,250 Descending Fort Worth Center
Tue 03:22:25 PM 33.9633 -100.3633 138° Southeast 397 457 32,200 -1,800 Descending Fort Worth Center
Tue 03:23:25 PM 33.8797 -100.2781 140° Southeast 397 457 30,200 -2,000 Descending Fort Worth Center
Tue 03:24:25 PM 33.7939 -100.1878 139° Southeast 402 463 28,200 -2,000 Descending Fort Worth Center
Tue 03:25:25 PM 33.7103 -100.1053 141° Southeast 402 463 26,200 -1,500 Descending Fort Worth Center
Tue 03:26:25 PM 33.6244 -100.0178 140° Southeast 402 463 25,200 -1,000 Descending Fort Worth Center
Tue 03:27:25 PM 33.5406 -99.9331 140° Southeast 402 463 24,200 -1,000 Descending Fort Worth Center
Tue 03:28:25 PM 33.4608 -99.8511 139° Southeast 397 457 23,200 -950 Descending Fort Worth Center
Tue 03:29:25 PM 33.3789 -99.7667 139° Southeast 397 457 22,300 -950 Descending Fort Worth Center
Tue 03:30:25 PM 33.2989 -99.6900 141° Southeast 391 450 21,300 -1,000 Descending Fort Worth Center
Tue 03:31:25 PM 33.2211 -99.6111 140° Southeast 380 437 20,300 -1,000 Descending Fort Worth Center
Tue 03:32:25 PM 33.1453 -99.5297 138° Southeast 375 432 19,300 -1,000 Descending Fort Worth Center
Tue 03:33:25 PM 33.0692 -99.4561 141° Southeast 370 426 18,300 -900 Descending Fort Worth Center
Tue 03:34:25 PM 32.9933 -99.3800 140° Southeast 365 420 17,500 -950 Descending Fort Worth Center
Tue 03:35:25 PM 32.9108 -99.3014 141° Southeast 359 413 16,400 -1,300 Descending Fort Worth Center
Tue 03:36:25 PM 32.8411 -99.2308 140° Southeast 347 399 14,900 -1,750 Descending Fort Worth Center
Tue 03:37:25 PM 32.7711 -99.1603 140° Southeast 341 392 12,900 -2,000 Descending Fort Worth Center

Login

Don't have an account? Register now (free) for customized features, flight alerts, and more!